createdAt,value
2018-07-22T00:01:28.357Z,95.30
2018-07-22T00:03:55.425Z,95.30
2018-07-22T00:06:23.680Z,95.90
2018-07-22T00:08:50.417Z,95.90
2018-07-22T00:11:17.312Z,96.30
2018-07-22T00:13:44.310Z,96.70
2018-07-22T00:16:11.050Z,97.30
2018-07-22T00:18:37.790Z,98.20
2018-07-22T00:21:04.533Z,98.80
2018-07-22T00:23:31.311Z,99.90
2018-07-22T00:25:58.015Z,99.90
2018-07-22T00:28:24.781Z,99.90
2018-07-22T00:30:51.493Z,99.90
2018-07-22T00:33:18.119Z,99.90
2018-07-22T00:35:44.869Z,99.90
2018-07-22T00:38:11.713Z,99.90
2018-07-22T00:40:38.659Z,99.90
2018-07-22T00:43:05.375Z,99.90
2018-07-22T00:45:32.857Z,99.90
2018-07-22T00:47:59.602Z,99.90
2018-07-22T00:50:26.440Z,99.90
2018-07-22T00:52:53.178Z,99.90
2018-07-22T00:55:20.022Z,99.90
2018-07-22T00:57:46.863Z,99.90
2018-07-22T01:00:13.610Z,99.90
2018-07-22T01:02:42.544Z,99.90
2018-07-22T01:05:10.360Z,99.90
2018-07-22T01:07:37.104Z,99.90
2018-07-22T01:10:03.831Z,99.90
2018-07-22T01:12:31.301Z,99.90
2018-07-22T01:14:57.927Z,99.90
2018-07-22T01:17:24.781Z,99.90
2018-07-22T01:19:51.519Z,99.90
2018-07-22T01:22:18.259Z,99.90
2018-07-22T01:24:45.000Z,99.90
2018-07-22T01:27:11.745Z,99.90
2018-07-22T01:29:38.457Z,99.90
2018-07-22T01:32:05.937Z,99.90
2018-07-22T01:34:32.678Z,99.90
2018-07-22T01:36:59.353Z,99.90
2018-07-22T01:39:26.876Z,99.90
2018-07-22T01:41:53.616Z,99.90
2018-07-22T01:44:20.347Z,99.90
2018-07-22T01:46:47.784Z,99.90
2018-07-22T01:49:14.556Z,99.90
2018-07-22T01:51:41.296Z,99.90
2018-07-22T01:54:08.139Z,99.90
2018-07-22T01:56:35.682Z,99.90
2018-07-22T01:59:04.485Z,99.90
2018-07-22T02:01:33.205Z,99.90
2018-07-22T02:04:00.188Z,99.90
2018-07-22T02:06:29.184Z,99.90
2018-07-22T02:08:57.284Z,99.90
2018-07-22T02:11:24.640Z,99.90
2018-07-22T02:13:54.083Z,99.90
2018-07-22T02:16:22.922Z,99.90
2018-07-22T02:18:49.671Z,99.90
2018-07-22T02:21:16.618Z,99.90
2018-07-22T02:23:44.076Z,99.90
2018-07-22T02:26:11.431Z,99.90
2018-07-22T02:28:38.168Z,99.90
2018-07-22T02:31:05.119Z,99.90
2018-07-22T02:33:32.679Z,99.90
2018-07-22T02:36:00.363Z,99.90
2018-07-22T02:38:28.001Z,99.90
2018-07-22T02:40:56.584Z,99.90
2018-07-22T02:43:23.527Z,99.90
2018-07-22T02:45:51.940Z,99.90
2018-07-22T02:48:19.364Z,99.90
2018-07-22T02:50:47.026Z,99.90
2018-07-22T02:53:13.972Z,99.90
2018-07-22T02:55:41.326Z,99.90
2018-07-22T02:58:08.678Z,99.90
2018-07-22T03:00:36.036Z,99.90
2018-07-22T03:03:03.288Z,99.90
2018-07-22T03:05:30.555Z,99.90
2018-07-22T03:07:57.485Z,99.90
2018-07-22T03:10:24.232Z,99.90
2018-07-22T03:12:51.528Z,99.90
2018-07-22T03:15:19.345Z,99.90
2018-07-22T03:17:47.518Z,99.90
2018-07-22T03:20:14.256Z,99.90
2018-07-22T03:22:40.881Z,99.90
2018-07-22T03:25:08.286Z,99.90
2018-07-22T03:27:34.986Z,99.90
2018-07-22T03:30:01.661Z,99.90
2018-07-22T03:32:29.045Z,99.90
2018-07-22T03:34:55.743Z,99.90
2018-07-22T03:37:22.422Z,99.90
2018-07-22T03:39:49.084Z,99.90
2018-07-22T03:42:15.794Z,99.90
2018-07-22T03:44:43.287Z,99.90
2018-07-22T03:47:10.052Z,99.90
2018-07-22T03:49:36.777Z,99.90
2018-07-22T03:52:03.474Z,99.90
2018-07-22T03:54:30.112Z,99.90
2018-07-22T03:56:56.779Z,99.90
2018-07-22T03:59:24.194Z,99.90
2018-07-22T04:01:50.829Z,99.90
2018-07-22T04:04:17.518Z,99.90
2018-07-22T04:06:44.904Z,99.90
2018-07-22T04:09:11.609Z,99.90
2018-07-22T04:11:39.006Z,99.90
2018-07-22T04:14:05.749Z,99.90
2018-07-22T04:16:32.435Z,99.90
2018-07-22T04:18:59.833Z,99.90
2018-07-22T04:21:26.505Z,99.90
2018-07-22T04:23:53.924Z,99.90
2018-07-22T04:26:20.565Z,99.90
2018-07-22T04:28:47.192Z,99.90
2018-07-22T04:31:13.895Z,99.90
2018-07-22T04:33:41.351Z,99.90
2018-07-22T04:36:08.984Z,94.80
2018-07-22T04:38:35.689Z,94.60
2018-07-22T04:41:02.399Z,90.00
2018-07-22T04:43:29.264Z,80.10
2018-07-22T04:45:56.006Z,78.50
2018-07-22T04:48:22.743Z,78.80
2018-07-22T04:50:49.661Z,76.70
2018-07-22T04:53:17.117Z,75.30
2018-07-22T04:55:44.507Z,73.70
2018-07-22T04:58:11.242Z,73.70
2018-07-22T05:00:37.981Z,76.40
2018-07-22T05:03:04.909Z,75.30
2018-07-22T05:05:31.651Z,72.30
2018-07-22T05:07:59.226Z,67.60
2018-07-22T05:10:25.879Z,67.50
2018-07-22T05:12:52.608Z,66.60
2018-07-22T05:15:19.324Z,63.10
2018-07-22T05:17:46.803Z,60.80
2018-07-22T05:20:13.646Z,60.80
2018-07-22T05:22:40.386Z,60.00
2018-07-22T05:25:07.127Z,59.70
2018-07-22T05:27:33.865Z,58.90
2018-07-22T05:30:00.685Z,59.10
2018-07-22T05:32:28.164Z,62.10
2018-07-22T05:34:54.909Z,62.20
2018-07-22T05:37:21.749Z,62.60
2018-07-22T05:39:48.460Z,62.20
2018-07-22T05:42:15.921Z,63.00
2018-07-22T05:44:42.766Z,63.00
2018-07-22T05:47:10.248Z,61.40
2018-07-22T05:49:36.988Z,61.40
2018-07-22T05:52:03.729Z,60.20
2018-07-22T05:54:30.444Z,58.00
2018-07-22T05:56:57.923Z,56.60
2018-07-22T05:59:24.636Z,56.50
2018-07-22T06:01:51.403Z,55.50
2018-07-22T06:04:18.145Z,54.70
2018-07-22T06:06:44.883Z,51.30
2018-07-22T06:09:11.729Z,49.10
2018-07-22T06:11:38.445Z,51.40
2018-07-22T06:14:05.910Z,54.10
2018-07-22T06:16:33.488Z,53.20
2018-07-22T06:19:00.126Z,53.20
2018-07-22T06:21:26.863Z,52.30
2018-07-22T06:23:53.786Z,51.70
2018-07-22T06:26:21.266Z,49.50
2018-07-22T06:28:48.004Z,49.60
2018-07-22T06:31:14.846Z,49.00
2018-07-22T06:33:41.501Z,49.60
2018-07-22T06:36:08.227Z,48.20
2018-07-22T06:38:35.070Z,48.90
2018-07-22T06:41:01.885Z,47.80
2018-07-22T06:43:29.367Z,47.00
2018-07-22T06:45:56.213Z,46.90
2018-07-22T06:48:22.950Z,47.20
2018-07-22T06:50:49.693Z,47.50
2018-07-22T06:53:16.536Z,49.50
2018-07-22T06:55:43.682Z,48.90
2018-07-22T06:58:10.529Z,48.80
2018-07-22T07:00:37.270Z,49.20
2018-07-22T07:03:04.211Z,49.40
2018-07-22T07:05:30.958Z,49.40
2018-07-22T07:07:57.796Z,49.90
2018-07-22T07:10:24.536Z,51.10
2018-07-22T07:12:51.278Z,51.60
2018-07-22T07:15:18.021Z,52.90
2018-07-22T07:17:44.863Z,54.40
2018-07-22T07:20:11.598Z,55.30
2018-07-22T07:22:38.484Z,53.70
2018-07-22T07:25:05.285Z,52.80
2018-07-22T07:27:32.130Z,53.00
2018-07-22T07:29:58.870Z,51.70
2018-07-22T07:32:25.644Z,50.20
2018-07-22T07:34:52.554Z,50.40
2018-07-22T07:37:19.294Z,49.30
2018-07-22T07:39:46.032Z,49.20
2018-07-22T07:42:12.828Z,49.90
2018-07-22T07:44:39.617Z,49.10
2018-07-22T07:47:06.376Z,49.50
2018-07-22T07:49:33.037Z,48.70
2018-07-22T07:51:59.712Z,48.20
2018-07-22T07:54:27.195Z,50.00
2018-07-22T07:56:53.932Z,50.00
2018-07-22T07:59:20.860Z,51.10
2018-07-22T08:01:47.617Z,50.90
2018-07-22T08:04:14.357Z,48.50
2018-07-22T08:06:41.068Z,48.90
2018-07-22T08:09:08.462Z,48.80
2018-07-22T08:11:35.233Z,48.80
2018-07-22T08:14:02.035Z,49.60
2018-07-22T08:16:28.879Z,49.80
2018-07-22T08:18:56.624Z,50.50
2018-07-22T08:21:23.308Z,50.50
2018-07-22T08:23:57.235Z,53.30
2018-07-22T08:26:24.138Z,53.20
2018-07-22T08:28:50.876Z,50.10
2018-07-22T08:31:17.614Z,50.40
2018-07-22T08:33:44.359Z,51.30
2018-07-22T08:36:11.084Z,48.70
2018-07-22T08:38:37.734Z,51.10
2018-07-22T08:41:04.581Z,51.20
2018-07-22T08:43:31.319Z,53.80
2018-07-22T08:45:58.058Z,54.40
2018-07-22T08:48:25.007Z,55.30
2018-07-22T08:50:51.726Z,56.00
2018-07-22T08:53:19.260Z,56.10
2018-07-22T08:55:45.940Z,56.10
2018-07-22T08:58:12.788Z,57.50
2018-07-22T09:00:39.497Z,58.40
2018-07-22T09:03:07.108Z,59.20
2018-07-22T09:05:33.802Z,59.20
2018-07-22T09:08:00.446Z,61.40
2018-07-22T09:10:27.866Z,61.60
2018-07-22T09:12:54.531Z,61.50
2018-07-22T09:15:21.973Z,62.40
2018-07-22T09:17:48.826Z,62.30
2018-07-22T09:20:15.599Z,61.40
2018-07-22T09:22:42.313Z,61.40
2018-07-22T09:25:09.719Z,64.10
2018-07-22T09:27:36.644Z,64.10
2018-07-22T09:30:03.405Z,63.00
2018-07-22T09:32:38.169Z,64.10
2018-07-22T09:35:05.666Z,63.50
2018-07-22T09:37:32.402Z,63.50
2018-07-22T09:39:59.076Z,63.60
2018-07-22T09:42:25.866Z,65.00
2018-07-22T09:44:53.447Z,66.20
2018-07-22T09:47:20.183Z,65.20
2018-07-22T09:49:47.032Z,66.30
2018-07-22T09:52:13.869Z,65.10
2018-07-22T09:54:40.614Z,63.50
2018-07-22T09:57:07.656Z,62.90
2018-07-22T09:59:34.400Z,61.80
2018-07-22T10:02:01.141Z,63.60
2018-07-22T10:04:27.991Z,64.30
2018-07-22T10:06:54.724Z,65.80
2018-07-22T10:09:21.438Z,66.10
2018-07-22T10:11:49.002Z,66.00
2018-07-22T10:14:15.789Z,66.00
2018-07-22T10:16:42.502Z,66.30
2018-07-22T10:19:09.346Z,65.00
2018-07-22T10:21:36.007Z,64.70
2018-07-22T10:24:02.827Z,65.50
2018-07-22T10:26:29.568Z,64.30
2018-07-22T10:28:56.408Z,64.40
2018-07-22T10:31:23.560Z,64.40
2018-07-22T10:33:51.838Z,64.30
2018-07-22T10:36:18.573Z,64.40
2018-07-22T10:38:45.313Z,64.60
2018-07-22T10:41:12.161Z,65.70
2018-07-22T10:43:38.901Z,64.30
2018-07-22T10:46:05.746Z,63.10
2018-07-22T10:48:32.484Z,63.00
2018-07-22T10:50:59.351Z,63.10
2018-07-22T10:53:26.334Z,62.40
2018-07-22T10:55:53.216Z,64.20
2018-07-22T10:58:19.957Z,64.20
2018-07-22T11:00:46.909Z,64.30
2018-07-22T11:03:14.564Z,64.10
2018-07-22T11:05:41.305Z,64.20
2018-07-22T11:08:08.129Z,62.60
2018-07-22T11:10:35.103Z,63.10
2018-07-22T11:13:02.782Z,63.60
2018-07-22T11:15:30.393Z,63.40
2018-07-22T11:17:57.272Z,63.30
2018-07-22T11:20:24.124Z,64.60
2018-07-22T11:22:51.062Z,65.70
2018-07-22T11:25:18.673Z,65.10
2018-07-22T11:27:45.549Z,65.30
2018-07-22T11:30:12.493Z,64.40
2018-07-22T11:32:39.294Z,64.30
2018-07-22T11:35:06.268Z,63.60
2018-07-22T11:37:33.331Z,63.60
2018-07-22T11:40:00.281Z,64.50
2018-07-22T11:42:27.145Z,63.90
2018-07-22T11:44:54.060Z,64.50
2018-07-22T11:47:20.909Z,63.50
2018-07-22T11:49:48.168Z,62.90
2018-07-22T11:52:15.135Z,62.70
2018-07-22T11:54:42.252Z,61.70
2018-07-22T11:57:09.180Z,61.30
2018-07-22T11:59:36.070Z,62.00
2018-07-22T12:02:03.729Z,63.10
2018-07-22T12:04:30.602Z,63.10
2018-07-22T12:06:57.421Z,62.10
2018-07-22T12:09:25.151Z,61.80
2018-07-22T12:11:52.227Z,61.80
2018-07-22T12:14:19.212Z,60.80
2018-07-22T12:16:46.588Z,60.40
2018-07-22T12:19:13.637Z,61.40
2018-07-22T12:21:40.818Z,61.70
2018-07-22T12:24:10.906Z,62.50
2018-07-22T12:26:37.960Z,62.60
2018-07-22T12:29:04.963Z,64.00
2018-07-22T12:31:31.838Z,62.90
2018-07-22T12:33:58.903Z,63.00
2018-07-22T12:36:25.796Z,62.20
2018-07-22T12:38:54.317Z,61.30
2018-07-22T12:41:21.392Z,61.30
2018-07-22T12:43:49.253Z,61.00
2018-07-22T12:46:17.838Z,60.20
2018-07-22T12:48:45.661Z,61.90
2018-07-22T12:51:12.822Z,61.90
2018-07-22T12:53:39.699Z,60.80
2018-07-22T12:56:07.789Z,60.20
2018-07-22T12:58:35.422Z,61.10
2018-07-22T13:01:03.186Z,62.50
2018-07-22T13:03:30.849Z,62.00
2018-07-22T13:05:58.720Z,59.60
2018-07-22T13:08:25.887Z,59.60
2018-07-22T13:10:53.501Z,60.00
2018-07-22T13:13:20.675Z,60.00
2018-07-22T13:15:47.589Z,59.90
2018-07-22T13:18:15.719Z,59.60
2018-07-22T13:20:42.582Z,59.50
2018-07-22T13:23:10.245Z,59.90
2018-07-22T13:25:37.165Z,60.00
2018-07-22T13:28:04.189Z,61.70
2018-07-22T13:30:30.979Z,61.20
2018-07-22T13:32:57.864Z,60.40
2018-07-22T13:35:24.700Z,59.70
2018-07-22T13:37:51.872Z,59.00
2018-07-22T13:40:18.842Z,58.80
2018-07-22T13:42:46.513Z,59.60
2018-07-22T13:45:14.227Z,60.50
2018-07-22T13:47:41.282Z,60.50
2018-07-22T13:50:08.283Z,60.30
2018-07-22T13:52:36.109Z,59.50
2018-07-22T13:55:03.781Z,59.50
2018-07-22T13:57:31.453Z,59.40
2018-07-22T13:59:58.782Z,59.60
2018-07-22T14:02:25.816Z,59.70
2018-07-22T14:04:52.633Z,59.00
2018-07-22T14:07:20.163Z,59.80
2018-07-22T14:09:47.275Z,59.80
2018-07-22T14:12:14.256Z,60.10
2018-07-22T14:14:41.167Z,60.50
2018-07-22T14:17:07.985Z,61.00
2018-07-22T14:19:35.054Z,60.80
2018-07-22T14:22:01.977Z,62.50
2018-07-22T14:24:28.843Z,62.00
2018-07-22T14:26:56.033Z,62.80
2018-07-22T14:29:22.928Z,62.90
2018-07-22T14:31:50.612Z,62.30
2018-07-22T14:34:17.551Z,62.20
2018-07-22T14:36:44.356Z,62.80
2018-07-22T14:39:11.181Z,63.90
2018-07-22T14:41:37.997Z,63.60
2018-07-22T14:44:04.865Z,63.20
2018-07-22T14:46:32.373Z,63.40
2018-07-22T14:48:59.450Z,63.20
2018-07-22T14:51:26.366Z,64.20
2018-07-22T14:53:54.132Z,64.50
2018-07-22T14:56:21.305Z,64.50
2018-07-22T14:58:49.001Z,64.40
2018-07-22T15:01:15.947Z,64.40
2018-07-22T15:03:43.141Z,64.60
2018-07-22T15:06:09.941Z,64.40
2018-07-22T15:08:37.671Z,64.00
2018-07-22T15:11:05.574Z,63.90
2018-07-22T15:13:33.282Z,64.40
2018-07-22T15:16:02.863Z,64.10
2018-07-22T15:18:30.034Z,64.00
2018-07-22T15:20:56.953Z,64.10
2018-07-22T15:23:23.926Z,63.20
2018-07-22T15:26:09.192Z,62.90
2018-07-22T15:28:36.353Z,62.20
2018-07-22T15:31:03.294Z,62.70
2018-07-22T15:33:31.457Z,62.50
2018-07-22T15:35:58.316Z,63.10
2018-07-22T15:38:25.364Z,63.40
2018-07-22T15:40:52.052Z,64.10
2018-07-22T15:43:19.662Z,65.30
2018-07-22T15:45:46.477Z,65.20
2018-07-22T15:48:14.060Z,66.00
2018-07-22T15:50:40.905Z,65.90
2018-07-22T15:53:08.055Z,66.20
2018-07-22T15:55:35.236Z,65.80
2018-07-22T15:58:02.175Z,66.70
2018-07-22T16:00:29.096Z,65.70
2018-07-22T16:02:56.253Z,65.70
2018-07-22T16:05:23.947Z,64.30
2018-07-22T16:07:50.918Z,64.30
2018-07-22T16:10:18.922Z,63.50
2018-07-22T16:12:47.302Z,63.10
2018-07-22T16:15:14.452Z,63.10
2018-07-22T16:17:41.602Z,63.60
2018-07-22T16:20:08.878Z,63.90
2018-07-22T16:22:35.794Z,63.40
2018-07-22T16:25:02.683Z,63.60
2018-07-22T16:27:30.417Z,65.10
2018-07-22T16:29:57.464Z,65.10
2018-07-22T16:32:25.247Z,65.40
2018-07-22T16:34:53.124Z,65.60
2018-07-22T16:37:20.227Z,65.60
2018-07-22T16:39:47.070Z,65.60
2018-07-22T16:42:14.000Z,65.60
2018-07-22T16:44:40.836Z,66.00
2018-07-22T16:47:07.895Z,66.30
2018-07-22T16:49:34.764Z,66.00
2018-07-22T16:52:01.548Z,66.50
2018-07-22T16:54:28.432Z,66.60
2018-07-22T16:56:55.294Z,66.90
2018-07-22T16:59:22.946Z,68.20
2018-07-22T17:01:49.736Z,68.10
2018-07-22T17:04:16.632Z,68.00
2018-07-22T17:06:43.404Z,68.40
2018-07-22T17:09:10.163Z,68.60
2018-07-22T17:11:37.645Z,69.30
2018-07-22T17:14:04.427Z,69.30
2018-07-22T17:16:31.287Z,69.70
2018-07-22T17:18:58.916Z,69.30
2018-07-22T17:21:26.520Z,69.50
2018-07-22T17:23:54.905Z,69.20
2018-07-22T17:26:22.591Z,69.20
2018-07-22T17:28:49.567Z,69.20
2018-07-22T17:31:17.707Z,68.50
2018-07-22T17:33:45.182Z,68.20
2018-07-22T17:36:12.881Z,68.50
2018-07-22T17:38:41.469Z,68.10
2018-07-22T17:41:08.492Z,67.90
2018-07-22T17:43:35.463Z,68.50
2018-07-22T17:46:02.266Z,68.10
2018-07-22T17:48:28.968Z,68.10
2018-07-22T17:50:55.759Z,68.60
2018-07-22T17:53:22.487Z,68.10
2018-07-22T17:55:49.247Z,68.50
2018-07-22T17:58:16.085Z,68.90
2018-07-22T18:00:42.931Z,69.00
2018-07-22T18:03:09.853Z,69.10
2018-07-22T18:05:36.619Z,68.90
2018-07-22T18:08:03.557Z,69.20
2018-07-22T18:10:30.606Z,69.70
2018-07-22T18:12:57.487Z,69.60
2018-07-22T18:15:24.173Z,69.40
2018-07-22T18:17:51.128Z,69.70
2018-07-22T18:20:17.865Z,69.90
2018-07-22T18:22:44.558Z,70.10
2018-07-22T18:25:11.455Z,69.80
2018-07-22T18:27:38.128Z,70.40
2018-07-22T18:30:05.040Z,71.00
2018-07-22T18:32:31.924Z,71.20
2018-07-22T18:34:59.544Z,71.80
2018-07-22T18:37:26.341Z,71.80
2018-07-22T18:39:53.025Z,72.90
2018-07-22T18:42:19.869Z,73.00
2018-07-22T18:44:46.608Z,73.30
2018-07-22T18:47:13.653Z,73.80
2018-07-22T18:49:41.699Z,75.30
2018-07-22T18:52:08.420Z,75.30
2018-07-22T18:54:35.516Z,76.10
2018-07-22T18:57:02.359Z,76.40
2018-07-22T18:59:29.304Z,77.20
2018-07-22T19:01:56.117Z,77.60
2018-07-22T19:04:23.602Z,78.20
2018-07-22T19:06:50.432Z,78.10
2018-07-22T19:09:17.393Z,78.30
2018-07-22T19:11:44.236Z,78.80
2018-07-22T19:14:11.385Z,78.50
2018-07-22T19:16:38.125Z,79.80
2018-07-22T19:19:04.885Z,81.50
2018-07-22T19:21:31.913Z,81.70
2018-07-22T19:23:58.756Z,81.40
2018-07-22T19:26:25.801Z,82.20
2018-07-22T19:28:52.962Z,82.50
2018-07-22T19:31:19.794Z,84.10
2018-07-22T19:33:48.716Z,83.60
2018-07-22T19:36:16.248Z,85.40
2018-07-22T19:38:43.190Z,85.40
2018-07-22T19:41:10.037Z,85.90
2018-07-22T19:43:36.938Z,86.80
2018-07-22T19:46:03.825Z,86.80
2018-07-22T19:48:30.773Z,87.40
2018-07-22T19:50:57.608Z,87.70
2018-07-22T19:53:24.357Z,88.90
2018-07-22T19:55:51.269Z,88.80
2018-07-22T19:58:18.852Z,90.00
2018-07-22T20:00:46.105Z,90.10
2018-07-22T20:03:13.152Z,90.20
2018-07-22T20:05:40.200Z,90.20
2018-07-22T20:08:07.762Z,90.30
2018-07-22T20:10:35.526Z,90.60
2018-07-22T20:13:03.274Z,90.90
2018-07-22T20:15:30.030Z,90.90
2018-07-22T20:20:34.115Z,92.10
2018-07-22T20:23:01.618Z,92.70
2018-07-22T20:25:28.567Z,92.70
2018-07-22T20:27:56.593Z,93.10
2018-07-22T20:30:23.665Z,93.80
2018-07-22T20:32:50.526Z,94.60
2018-07-22T20:35:17.574Z,96.10
2018-07-22T20:37:44.519Z,98.00
2018-07-22T20:40:12.594Z,99.90
2018-07-22T20:42:40.867Z,99.90
2018-07-22T20:45:08.989Z,99.90
2018-07-22T20:47:38.563Z,99.90
2018-07-22T20:50:05.903Z,99.90
2018-07-22T20:52:33.381Z,99.90
2018-07-22T20:55:00.201Z,99.90
2018-07-22T20:57:27.041Z,99.90
2018-07-22T20:59:55.041Z,99.90
2018-07-22T21:02:21.834Z,99.90
2018-07-22T21:04:48.989Z,99.90
2018-07-22T21:07:16.461Z,99.90
2018-07-22T21:09:43.205Z,99.90
2018-07-22T21:15:18.697Z,99.90
2018-07-22T21:17:45.675Z,99.90
2018-07-22T21:20:12.352Z,99.90
2018-07-22T21:22:39.092Z,99.90
2018-07-22T21:25:05.809Z,99.90
2018-07-22T21:27:33.293Z,99.90
2018-07-22T21:30:00.057Z,99.90
2018-07-22T21:32:26.774Z,99.90
2018-07-22T21:34:53.514Z,99.90
2018-07-22T21:37:20.250Z,99.90
2018-07-22T21:39:47.095Z,99.90
2018-07-22T21:42:13.836Z,99.90
2018-07-22T21:44:40.572Z,99.90
2018-07-22T21:47:07.519Z,99.90
2018-07-22T21:49:34.568Z,99.90
2018-07-22T21:52:01.410Z,99.90
2018-07-22T21:54:28.564Z,99.90
2018-07-22T21:56:55.428Z,99.90
2018-07-22T21:59:22.962Z,99.90
2018-07-22T22:01:50.611Z,99.90
2018-07-22T22:04:17.677Z,99.90
2018-07-22T22:06:44.821Z,99.90
2018-07-22T22:09:11.561Z,99.90
2018-07-22T22:11:38.302Z,99.90
2018-07-22T22:14:06.069Z,99.90
2018-07-22T22:16:32.784Z,99.90
2018-07-22T22:19:00.349Z,99.90
2018-07-22T22:21:28.646Z,99.90
2018-07-22T22:23:56.205Z,99.90
2018-07-22T22:26:23.146Z,99.90
2018-07-22T22:28:49.888Z,99.90
2018-07-22T22:31:16.627Z,99.90
2018-07-22T22:33:43.367Z,99.90
2018-07-22T22:36:10.006Z,99.90
2018-07-22T22:38:36.950Z,99.90
2018-07-22T22:41:03.741Z,99.90
2018-07-22T22:43:30.430Z,99.90
2018-07-22T22:45:57.149Z,99.90
2018-07-22T22:48:24.627Z,99.90
2018-07-22T22:50:51.370Z,99.90
2018-07-22T22:53:18.080Z,99.90
2018-07-22T22:55:45.688Z,99.90
2018-07-22T22:58:24.682Z,99.90
2018-07-22T23:00:51.645Z,99.90
2018-07-22T23:03:37.124Z,99.90
2018-07-22T23:06:03.941Z,99.90
2018-07-22T23:08:30.747Z,99.90
2018-07-22T23:10:57.654Z,99.90
2018-07-22T23:13:24.594Z,99.90
2018-07-22T23:15:51.313Z,99.90
2018-07-22T23:18:18.280Z,99.90
2018-07-22T23:20:45.228Z,99.90
2018-07-22T23:23:11.942Z,99.90
2018-07-22T23:25:39.631Z,99.90
2018-07-22T23:28:06.473Z,99.90
2018-07-22T23:30:33.318Z,99.90
2018-07-22T23:33:00.159Z,99.90
2018-07-22T23:35:27.006Z,99.90
2018-07-22T23:37:53.738Z,99.90
2018-07-22T23:40:20.891Z,99.90
2018-07-22T23:42:47.737Z,99.90
2018-07-22T23:45:15.398Z,99.90
2018-07-22T23:47:42.133Z,99.90
2018-07-22T23:50:08.976Z,99.90
2018-07-22T23:52:35.827Z,99.90
2018-07-22T23:55:02.644Z,99.90
2018-07-22T23:57:29.513Z,99.90
2018-07-22T23:59:56.408Z,99.90
